Time;durP1;ratioP1;P1;durP2;ratioP2;P2;SDS_P1;SDS_P2;PMS_P1;PMS_P2;Temp;Humidity;BMP_temperature;BMP_pressure;BME280_temperature;BME280_humidity;BME280_pressure;Samples;Min_cycle;Max_cycle;Signal;HPM_P1;HPM_P2
2021/12/01 00:02:09;;;;;;;;;0.25;0.25;;;;;9.68;100.00;99815.47;4875698;29;9646;-72
2021/12/01 00:04:36;;;;;;;;;0.00;0.00;;;;;9.69;100.00;99803.63;4874224;29;9414;-71
2021/12/01 00:07:03;;;;;;;;;1.33;1.00;;;;;9.66;100.00;99808.56;4876207;29;9600;-70
2021/12/01 00:09:29;;;;;;;;;1.75;0.00;;;;;9.68;100.00;99799.25;4875938;29;9456;-70
2021/12/01 00:11:58;;;;;;;;;2.00;2.00;;;;;9.69;100.00;99786.56;4875902;29;9549;-71
2021/12/01 00:14:25;;;;;;;;;1.75;1.00;;;;;9.70;100.00;99777.41;4876031;29;9402;-71
2021/12/01 00:16:54;;;;;;;;;1.00;1.00;;;;;9.71;100.00;99773.69;4876489;29;9400;-71
2021/12/01 00:19:21;;;;;;;;;1.00;1.00;;;;;9.71;100.00;99754.75;4872273;29;10133;-70
2021/12/01 00:21:50;;;;;;;;;2.00;2.00;;;;;9.70;100.00;99739.59;4876338;29;9490;-70
2021/12/01 00:24:16;;;;;;;;;0.00;0.00;;;;;9.70;100.00;99742.28;4875848;29;9793;-69
2021/12/01 00:26:45;;;;;;;;;0.25;0.25;;;;;9.69;100.00;99727.94;4876287;29;9408;-69
2021/12/01 00:29:11;;;;;;;;;0.00;0.00;;;;;9.69;100.00;99725.25;4872382;29;9612;-70
2021/12/01 00:31:38;;;;;;;;;0.00;0.00;;;;;9.70;100.00;99721.50;4875399;29;10269;-70
2021/12/01 00:34:07;;;;;;;;;1.25;1.25;;;;;9.72;100.00;99718.59;4874344;29;9426;-70
2021/12/01 00:36:33;;;;;;;;;0.00;0.00;;;;;9.72;100.00;99702.38;4875959;29;9641;-70
2021/12/01 00:39:00;;;;;;;;;0.75;0.75;;;;;9.73;100.00;99704.84;4869079;29;9505;-71
2021/12/01 00:41:26;;;;;;;;;0.00;0.00;;;;;9.75;100.00;99685.72;4857474;29;9649;-72
2021/12/01 00:43:53;;;;;;;;;0.00;0.00;;;;;9.75;100.00;99683.84;4873141;29;9507;-71
2021/12/01 00:46:24;;;;;;;;;1.00;1.00;;;;;9.74;100.00;99665.13;4874906;29;9500;-70
2021/12/01 00:48:51;;;;;;;;;0.50;0.50;;;;;9.76;100.00;99672.00;4875405;29;10254;-71
2021/12/01 00:51:19;;;;;;;;;2.00;0.75;;;;;9.76;100.00;99661.19;4874093;29;9435;-69
2021/12/01 00:53:45;;;;;;;;;2.00;1.00;;;;;9.77;100.00;99657.44;4876938;29;9553;-70
2021/12/01 00:56:12;;;;;;;;;2.00;1.00;;;;;9.78;100.00;99645.56;4879222;29;9405;-70
2021/12/01 00:58:39;;;;;;;;;2.00;1.00;;;;;9.78;100.00;99648.28;4879704;29;9485;-70
2021/12/01 01:01:06;;;;;;;;;0.00;0.00;;;;;9.79;100.00;99633.72;4877518;29;9647;-70
2021/12/01 01:03:32;;;;;;;;;1.00;1.00;;;;;9.80;100.00;99634.56;4879095;29;9489;-70
2021/12/01 01:05:59;;;;;;;;;1.33;1.00;;;;;9.81;100.00;99628.09;4877636;29;9433;-70
2021/12/01 01:08:26;;;;;;;;;0.00;0.00;;;;;9.81;100.00;99623.53;4879346;29;9477;-70
2021/12/01 01:16:25;;;;;;;;;1.00;1.00;;;;;9.87;100.00;99616.44;4878509;29;9489;-70
2021/12/01 01:19:04;;;;;;;;;2.00;1.33;;;;;9.88;100.00;99618.09;4878427;29;9551;-70
2021/12/01 01:21:34;;;;;;;;;0.67;0.67;;;;;9.90;100.00;99596.25;4878941;29;9492;-71
2021/12/01 01:24:02;;;;;;;;;2.00;1.00;;;;;9.88;100.00;99580.25;4878674;29;9407;-70
2021/12/01 01:26:31;;;;;;;;;2.00;1.00;;;;;9.86;100.00;99580.47;4879112;29;9266;-70
2021/12/01 01:28:57;;;;;;;;;0.00;0.00;;;;;9.87;100.00;99574.00;4877410;29;9348;-70
2021/12/01 01:31:24;;;;;;;;;0.67;0.00;;;;;9.90;100.00;99580.03;4878789;29;9548;-70
2021/12/01 01:33:51;;;;;;;;;0.00;0.00;;;;;9.92;100.00;99557.16;4877537;29;9205;-70
2021/12/01 01:36:17;;;;;;;;;1.00;0.00;;;;;9.92;100.00;99548.22;4878724;29;9253;-72
2021/12/01 01:38:44;;;;;;;;;0.00;0.00;;;;;9.92;100.00;99549.06;4878407;29;9334;-71
2021/12/01 01:41:12;;;;;;;;;1.00;1.00;;;;;9.90;100.00;99544.88;4878710;29;9528;-70
2021/12/01 01:43:40;;;;;;;;;1.00;0.67;;;;;9.90;100.00;99544.88;4877556;29;9269;-70
2021/12/01 01:46:09;;;;;;;;;1.00;0.00;;;;;9.91;100.00;99533.00;4877809;29;9412;-70
2021/12/01 01:48:48;;;;;;;;;3.00;1.33;;;;;9.87;100.00;99538.84;4878556;29;9256;-71
2021/12/01 01:51:18;;;;;;;;;0.00;0.00;;;;;9.87;100.00;99524.50;4875567;29;9290;-70
2021/12/01 01:53:45;;;;;;;;;0.67;0.67;;;;;9.85;100.00;99519.31;4877971;29;9333;-69
2021/12/01 01:56:12;;;;;;;;;0.00;0.00;;;;;9.82;100.00;99502.72;4878468;29;10137;-71
2021/12/01 01:58:38;;;;;;;;;1.33;1.00;;;;;9.80;100.00;99499.41;4878856;29;9426;-71
2021/12/01 02:01:08;;;;;;;;;2.00;1.25;;;;;9.77;100.00;99494.44;4877461;29;9442;-70
2021/12/01 02:03:38;;;;;;;;;1.00;0.00;;;;;9.76;100.00;99482.78;4878054;29;9560;-70
2021/12/01 02:06:07;;;;;;;;;2.00;1.00;;;;;9.78;100.00;99488.00;4891097;23;9628;-71
2021/12/01 02:08:35;;;;;;;;;4.00;0.00;;;;;9.77;100.00;99457.44;4873659;29;9554;-71
2021/12/01 02:11:05;;;;;;;;;4.00;0.00;;;;;9.80;100.00;99462.41;4858817;29;9425;-71
2021/12/01 02:13:32;;;;;;;;;1.50;0.00;;;;;9.81;100.00;99458.66;4856937;29;9448;-71
2021/12/01 02:16:00;;;;;;;;;0.00;0.00;;;;;9.82;100.00;99438.69;4857192;29;9524;-71
2021/12/01 02:18:27;;;;;;;;;0.50;0.25;;;;;9.81;100.00;99434.31;4857939;29;9475;-71
2021/12/01 02:20:59;;;;;;;;;1.00;1.00;;;;;9.82;100.00;99433.28;4858197;29;9507;-71
2021/12/01 02:23:26;;;;;;;;;0.00;0.00;;;;;9.84;100.00;99412.25;4858936;29;9426;-72
2021/12/01 02:25:53;;;;;;;;;2.00;1.50;;;;;9.84;100.00;99411.41;4859590;29;9257;-72
2021/12/01 02:28:20;;;;;;;;;2.67;0.67;;;;;9.84;100.00;99419.53;4858363;29;9414;-72
2021/12/01 02:30:46;;;;;;;;;1.75;1.00;;;;;9.84;100.00;99411.41;4858463;29;9405;-72
2021/12/01 02:33:13;;;;;;;;;0.25;0.00;;;;;9.88;100.00;99391.84;4858706;29;9416;-72
2021/12/01 02:35:40;;;;;;;;;0.25;0.25;;;;;9.90;100.00;99394.31;4859012;29;9565;-72
2021/12/01 02:38:07;;;;;;;;;0.25;0.00;;;;;9.93;100.00;99379.56;4858940;29;9437;-72
2021/12/01 02:40:33;;;;;;;;;2.00;0.67;;;;;9.94;100.00;99365.00;4858106;29;9438;-71
2021/12/01 02:43:00;;;;;;;;;1.00;0.50;;;;;9.92;100.00;99381.44;4856927;29;9422;-72
2021/12/01 02:45:26;;;;;;;;;0.00;0.00;;;;;9.95;100.00;99361.25;4858109;29;9521;-72
2021/12/01 02:47:53;;;;;;;;;2.00;1.00;;;;;9.97;100.00;99348.31;4857413;29;9501;-72
2021/12/01 02:50:20;;;;;;;;;1.33;0.00;;;;;9.97;100.00;99343.75;4855609;29;9496;-72
2021/12/01 02:52:46;;;;;;;;;0.00;0.00;;;;;9.99;100.00;99327.31;4857656;29;9174;-71
2021/12/01 02:55:18;;;;;;;;;0.00;0.00;;;;;10.02;100.00;99338.50;4858482;29;9392;-72
2021/12/01 02:57:46;;;;;;;;;1.33;1.00;;;;;10.04;100.00;99316.63;4858808;29;9335;-72
2021/12/01 03:00:15;;;;;;;;;1.67;1.00;;;;;10.03;100.00;99317.69;4857553;29;9267;-72
2021/12/01 03:02:42;;;;;;;;;1.00;0.00;;;;;10.03;100.00;99307.72;4856352;29;9426;-72
2021/12/01 03:05:09;;;;;;;;;1.00;0.00;;;;;10.03;100.00;99286.06;4857146;29;9343;-72
2021/12/01 03:07:37;;;;;;;;;1.00;0.00;;;;;10.04;100.00;99301.25;4857341;29;9343;-72
2021/12/01 03:10:05;;;;;;;;;1.33;0.67;;;;;10.05;100.00;99291.25;4858348;29;9502;-72
2021/12/01 03:12:37;;;;;;;;;0.00;0.00;;;;;10.01;100.00;99280.06;4857119;29;9347;-72
2021/12/01 03:15:06;;;;;;;;;1.00;0.00;;;;;9.99;100.00;99278.63;4856163;29;9272;-72
2021/12/01 03:17:32;;;;;;;;;0.67;0.33;;;;;9.98;100.00;99264.28;4853503;29;9290;-72
2021/12/01 03:20:00;;;;;;;;;0.67;0.00;;;;;9.94;100.00;99270.38;4858342;29;9438;-72
2021/12/01 03:22:27;;;;;;;;;2.00;1.00;;;;;9.94;100.00;99257.69;4858168;29;9323;-71
2021/12/01 03:24:54;;;;;;;;;0.00;0.00;;;;;9.92;100.00;99248.16;4858226;29;9352;-72
2021/12/01 03:27:21;;;;;;;;;0.00;0.00;;;;;9.88;100.00;99236.94;4856623;29;9336;-71
2021/12/01 03:29:49;;;;;;;;;0.33;0.33;;;;;9.86;100.00;99245.28;4856796;29;9418;-72
2021/12/01 03:32:16;;;;;;;;;1.00;1.00;;;;;9.84;100.00;99228.44;4854335;29;9322;-72
2021/12/01 03:34:44;;;;;;;;;1.00;1.00;;;;;9.81;100.00;99199.16;4856967;29;10208;-71
2021/12/01 03:37:11;;;;;;;;;2.00;2.00;;;;;9.79;100.00;99195.03;4857912;29;9631;-72
2021/12/01 03:39:38;;;;;;;;;2.25;2.25;;;;;9.74;100.00;99187.63;4856610;29;9665;-71
2021/12/01 03:42:05;;;;;;;;;4.25;2.00;;;;;9.71;100.00;99192.66;4857601;29;9426;-72
2021/12/01 03:44:32;;;;;;;;;7.00;7.00;;;;;9.68;100.00;99179.59;4855295;29;9474;-72
2021/12/01 03:46:59;;;;;;;;;4.50;4.50;;;;;9.66;100.00;99177.09;4856553;29;9751;-71
2021/12/01 03:49:25;;;;;;;;;4.00;4.00;;;;;9.62;100.00;99178.59;4856873;29;9640;-71
2021/12/01 03:51:52;;;;;;;;;4.00;4.00;;;;;9.55;100.00;99170.56;4855907;29;9653;-71
2021/12/01 03:54:18;;;;;;;;;3.00;2.75;;;;;9.53;100.00;99172.66;4839176;29;9749;-71
2021/12/01 03:56:45;;;;;;;;;3.00;3.00;;;;;9.49;100.00;99149.84;4839351;29;9736;-72
2021/12/01 03:59:13;;;;;;;;;3.50;2.25;;;;;9.46;100.00;99147.59;4853701;29;9804;-72
2021/12/01 04:01:39;;;;;;;;;3.00;3.00;;;;;9.43;100.00;99152.63;4839502;29;10017;-72
2021/12/01 04:04:06;;;;;;;;;4.75;2.00;;;;;9.39;100.00;99148.69;4855029;29;9740;-71
2021/12/01 04:06:33;;;;;;;;;0.75;0.75;;;;;9.36;100.00;99122.94;4855660;29;9601;-71
2021/12/01 04:09:00;;;;;;;;;4.50;2.50;;;;;9.32;100.00;99124.44;4855556;29;9441;-71
2021/12/01 04:11:27;;;;;;;;;2.25;1.25;;;;;9.28;100.00;99123.25;4856396;29;9592;-72
2021/12/01 04:13:56;;;;;;;;;1.00;1.00;;;;;9.27;100.00;99107.28;4857361;29;9558;-71
2021/12/01 04:16:23;;;;;;;;;1.00;1.00;;;;;9.24;100.00;99109.38;4857696;29;9597;-71
2021/12/01 04:18:49;;;;;;;;;1.00;0.75;;;;;9.21;100.00;99104.44;4856929;29;9623;-71
2021/12/01 04:21:16;;;;;;;;;1.00;1.00;;;;;9.20;100.00;99105.47;4857486;29;9570;-71
2021/12/01 04:23:44;;;;;;;;;1.00;1.00;;;;;9.15;100.00;99091.78;4857343;29;9628;-71
2021/12/01 04:26:12;;;;;;;;;1.50;1.50;;;;;9.14;100.00;99094.72;4856210;29;9824;-72
2021/12/01 04:28:39;;;;;;;;;0.75;0.75;;;;;9.12;100.00;99072.50;4857597;29;9827;-71
2021/12/01 04:31:05;;;;;;;;;2.00;2.00;;;;;9.10;100.00;99071.91;4860381;29;9782;-71
2021/12/01 04:33:32;;;;;;;;;3.00;2.00;;;;;9.06;100.00;99074.25;4860050;29;9895;-71
2021/12/01 04:35:59;;;;;;;;;1.25;1.25;;;;;9.05;100.00;99077.16;4861044;29;10470;-71
2021/12/01 04:38:25;;;;;;;;;1.25;1.25;;;;;9.02;100.00;99066.81;4859902;29;10002;-71
2021/12/01 04:40:52;;;;;;;;;0.75;0.75;;;;;9.02;100.00;99064.94;4859892;29;9724;-71
2021/12/01 04:43:18;;;;;;;;;2.00;1.00;;;;;9.01;100.00;99048.97;4859645;29;9786;-71
2021/12/01 04:45:48;;;;;;;;;5.00;3.00;;;;;9.00;100.00;99050.03;4858955;29;9928;-71
2021/12/01 04:48:14;;;;;;;;;4.00;4.00;;;;;8.98;100.00;99044.84;4859785;29;10066;-70
2021/12/01 04:50:41;;;;;;;;;2.00;2.00;;;;;8.97;100.00;99048.59;4860822;29;9902;-70
2021/12/01 04:53:07;;;;;;;;;4.00;4.00;;;;;8.91;100.00;99027.88;4860431;29;9744;-70
2021/12/01 04:55:34;;;;;;;;;2.00;2.00;;;;;8.94;100.00;99030.97;4860661;29;10463;-70
2021/12/01 04:58:00;;;;;;;;;4.00;3.75;;;;;8.93;100.00;99023.94;4860706;29;9777;-70
2021/12/01 05:00:27;;;;;;;;;6.25;5.00;;;;;8.93;100.00;99023.09;4848570;29;9891;-70
2021/12/01 05:02:54;;;;;;;;;3.00;3.00;;;;;8.91;100.00;99004.41;4858374;29;9873;-70
2021/12/01 05:05:28;;;;;;;;;4.50;3.50;;;;;8.92;100.00;99019.59;4859818;29;9760;-70
2021/12/01 05:07:55;;;;;;;;;6.50;6.25;;;;;8.92;100.00;99003.38;4859190;29;9803;-70
2021/12/01 05:10:22;;;;;;;;;4.25;3.50;;;;;8.91;100.00;98993.63;4858746;29;9993;-71
2021/12/01 05:12:49;;;;;;;;;6.00;5.00;;;;;8.92;100.00;98992.59;4859316;29;9904;-70
2021/12/01 05:15:16;;;;;;;;;7.00;5.00;;;;;8.90;100.00;98973.06;4858988;29;9809;-70
2021/12/01 05:17:42;;;;;;;;;5.00;5.00;;;;;8.92;100.00;98989.03;4860380;29;10230;-71
2021/12/01 05:20:11;;;;;;;;;11.75;9.50;;;;;8.91;100.00;98976.59;4859589;29;10091;-70
2021/12/01 05:22:39;;;;;;;;;9.25;8.00;;;;;8.93;100.00;98972.66;4860081;29;10134;-70
2021/12/01 05:25:06;;;;;;;;;7.25;7.25;;;;;8.93;100.00;98961.03;4858992;29;10049;-70
2021/12/01 05:27:32;;;;;;;;;6.75;6.25;;;;;8.89;100.00;98952.53;4858237;29;10161;-70
2021/12/01 05:29:59;;;;;;;;;5.00;5.00;;;;;8.92;100.00;98960.22;4860232;29;10075;-70
2021/12/01 05:32:26;;;;;;;;;8.75;6.75;;;;;8.94;100.00;98946.50;4859730;29;9917;-70
2021/12/01 05:34:52;;;;;;;;;13.25;12.25;;;;;8.93;100.00;98948.38;4859777;29;10176;-70
2021/12/01 05:37:19;;;;;;;;;15.75;13.25;;;;;8.93;100.00;98948.38;4859234;29;10182;-70
2021/12/01 05:39:45;;;;;;;;;10.00;10.00;;;;;8.93;100.00;98940.28;4859230;29;10315;-70
2021/12/01 05:42:12;;;;;;;;;8.25;8.25;;;;;8.94;100.00;98931.13;4859800;29;10306;-70
2021/12/01 05:44:40;;;;;;;;;12.75;11.50;;;;;8.95;100.00;98926.56;4858615;29;10156;-70
2021/12/01 05:47:07;;;;;;;;;12.75;8.50;;;;;8.96;100.00;98941.69;4858414;29;10333;-71
2021/12/01 05:49:33;;;;;;;;;7.75;7.00;;;;;8.93;100.00;98917.84;4859883;29;11395;-71
2021/12/01 05:52:00;;;;;;;;;10.00;7.00;;;;;8.98;100.00;98914.47;4857076;29;10066;-71
2021/12/01 05:54:26;;;;;;;;;7.00;6.50;;;;;8.97;100.00;98919.06;4858846;29;10100;-71
2021/12/01 05:56:53;;;;;;;;;8.50;6.75;;;;;8.99;100.00;98921.53;4859106;29;9963;-71
2021/12/01 05:59:19;;;;;;;;;6.50;4.50;;;;;9.00;100.00;98915.91;4858630;29;10257;-71
2021/12/01 06:01:46;;;;;;;;;4.50;4.50;;;;;9.00;100.00;98909.66;4858334;29;9961;-71
2021/12/01 06:04:12;;;;;;;;;4.00;4.00;;;;;9.00;100.00;98909.66;4856354;29;10082;-71
2021/12/01 06:06:39;;;;;;;;;3.75;3.00;;;;;9.02;100.00;98916.50;4858197;29;10068;-71
2021/12/01 06:09:06;;;;;;;;;4.50;4.00;;;;;9.02;100.00;98894.06;4859273;29;9844;-71
2021/12/01 06:11:32;;;;;;;;;5.00;2.75;;;;;9.04;100.00;98892.78;4859328;29;9951;-71
2021/12/01 06:13:59;;;;;;;;;3.00;3.00;;;;;9.02;100.00;98884.09;4858953;29;10016;-70
2021/12/01 06:16:25;;;;;;;;;4.00;4.00;;;;;9.04;100.00;98884.69;4857982;29;9736;-70
2021/12/01 06:18:53;;;;;;;;;2.00;2.00;;;;;9.04;100.00;98868.50;4857506;29;9776;-70
2021/12/01 06:21:19;;;;;;;;;3.50;1.00;;;;;9.06;100.00;98868.28;4858519;29;9936;-70
2021/12/01 06:23:46;;;;;;;;;2.00;2.00;;;;;9.06;100.00;98854.78;4858626;29;9860;-70
2021/12/01 06:26:12;;;;;;;;;0.00;0.00;;;;;9.07;100.00;98849.16;4857162;29;9815;-70
2021/12/01 06:28:40;;;;;;;;;5.00;1.50;;;;;9.04;100.00;98846.91;4859100;29;9823;-70
2021/12/01 06:31:07;;;;;;;;;1.00;1.00;;;;;9.06;100.00;98855.59;4858262;29;9726;-70
2021/12/01 06:33:33;;;;;;;;;2.00;2.00;;;;;9.03;100.00;98839.88;4858345;29;9733;-70
2021/12/01 06:36:00;;;;;;;;;2.50;1.50;;;;;9.06;100.00;98852.06;4859033;29;9915;-70
2021/12/01 06:38:27;;;;;;;;;1.50;1.50;;;;;9.06;100.00;98847.50;4859108;29;9788;-70
2021/12/01 06:40:53;;;;;;;;;2.50;2.50;;;;;9.07;100.00;98851.84;4858657;29;9723;-70
2021/12/01 06:43:20;;;;;;;;;2.50;2.50;;;;;9.08;100.00;98839.16;4856682;29;9811;-70
2021/12/01 06:45:46;;;;;;;;;2.75;2.00;;;;;9.08;100.00;98853.50;4857861;29;9998;-70
2021/12/01 06:48:13;;;;;;;;;2.00;2.00;;;;;9.08;100.00;98840.00;4858726;29;9798;-71
2021/12/01 06:50:40;;;;;;;;;2.50;2.25;;;;;9.10;100.00;98848.69;4858064;29;9624;-70
2021/12/01 06:53:07;;;;;;;;;1.25;1.25;;;;;9.09;100.00;98835.41;4858582;29;9813;-70
2021/12/01 06:55:33;;;;;;;;;1.00;1.00;;;;;9.11;100.00;98830.63;4858390;29;9642;-70
2021/12/01 06:58:00;;;;;;;;;2.00;2.00;;;;;9.12;100.00;98829.56;4855920;29;9730;-70
2021/12/01 07:00:27;;;;;;;;;2.00;2.00;;;;;9.12;100.00;98819.59;4858563;29;9766;-70
2021/12/01 07:02:54;;;;;;;;;2.00;2.00;;;;;9.12;100.00;98810.66;4857096;29;10805;-71
2021/12/01 07:05:20;;;;;;;;;2.25;2.25;;;;;9.11;100.00;98809.84;4858023;29;9632;-72
2021/12/01 07:07:47;;;;;;;;;4.25;3.00;;;;;9.11;100.00;98812.53;4858411;29;9575;-72
2021/12/01 07:10:14;;;;;;;;;3.25;3.25;;;;;9.12;100.00;98795.28;4857517;29;10485;-71
2021/12/01 07:12:42;;;;;;;;;2.25;2.00;;;;;9.13;100.00;98794.25;4856317;29;9819;-71
2021/12/01 07:15:09;;;;;;;;;2.00;1.00;;;;;9.13;100.00;98793.41;4858005;29;9652;-71
2021/12/01 07:17:36;;;;;;;;;3.50;3.50;;;;;9.13;100.00;98778.03;4854935;29;9569;-71
2021/12/01 07:20:04;;;;;;;;;5.50;2.00;;;;;9.13;100.00;98779.91;4856881;29;9703;-71
2021/12/01 07:22:31;;;;;;;;;1.50;1.50;;;;;9.14;100.00;98792.34;4856380;29;9662;-71
2021/12/01 07:24:57;;;;;;;;;1.25;1.25;;;;;9.15;100.00;98769.72;4857503;29;9487;-71
2021/12/01 07:27:24;;;;;;;;;2.00;2.00;;;;;9.13;100.00;98772.63;4855580;29;9637;-71
2021/12/01 07:29:51;;;;;;;;;0.50;0.50;;;;;9.14;100.00;98766.19;4856096;29;9646;-72
2021/12/01 07:32:17;;;;;;;;;1.00;1.00;;;;;9.17;100.00;98751.41;4856193;29;9430;-71
2021/12/01 07:34:44;;;;;;;;;2.00;1.50;;;;;9.14;100.00;98755.38;4857938;29;9633;-72
2021/12/01 07:37:16;;;;;;;;;0.50;0.50;;;;;9.16;100.00;98771.34;4852115;29;9705;-71
2021/12/01 07:39:43;;;;;;;;;2.00;2.00;;;;;9.17;100.00;98781.09;4854294;29;9630;-71
2021/12/01 07:42:12;;;;;;;;;4.00;1.00;;;;;9.17;100.00;98803.56;4854986;29;10289;-71
2021/12/01 07:44:39;;;;;;;;;2.00;1.00;;;;;9.05;100.00;98797.28;4852532;29;9805;-71
2021/12/01 07:47:06;;;;;;;;;1.25;1.00;;;;;8.98;100.00;98801.94;4852465;29;9806;-72
2021/12/01 07:49:33;;;;;;;;;0.75;0.75;;;;;8.97;100.00;98811.09;4852709;29;9599;-72
2021/12/01 07:52:56;;;;;;;;;2.50;1.00;;;;;8.88;100.00;98799.78;4853073;29;9654;-71
2021/12/01 07:56:16;;;;;;;;;0.00;0.00;;;;;8.81;99.51;98809.03;4831620;29;9573;-72
2021/12/01 07:59:15;;;;;;;;;2.25;1.50;;;;;8.76;99.30;98817.81;4853735;29;9586;-71
2021/12/01 08:01:43;;;;;;;;;0.50;0.50;;;;;8.73;99.02;98812.88;4853065;29;9594;-71
2021/12/01 08:04:11;;;;;;;;;2.50;1.25;;;;;8.74;98.66;98808.28;4843306;29;9626;-70
2021/12/01 08:06:38;;;;;;;;;0.00;0.00;;;;;8.69;97.83;98814.38;4883952;23;9854;-72
2021/12/01 08:09:05;;;;;;;;;2.00;2.00;;;;;8.73;97.22;98809.34;4873829;29;9485;-70
2021/12/01 08:11:33;;;;;;;;;4.25;1.00;;;;;8.74;96.50;98822.59;4881450;29;10435;-70
2021/12/01 08:13:59;;;;;;;;;0.75;0.75;;;;;8.75;96.29;98818.03;4872348;29;9600;-69
2021/12/01 08:16:26;;;;;;;;;1.00;1.00;;;;;8.75;95.31;98791.06;4873749;29;9590;-69
2021/12/01 08:18:55;;;;;;;;;2.00;1.00;;;;;8.83;93.75;98817.72;4874226;29;9618;-69
2021/12/01 08:21:24;;;;;;;;;0.00;0.00;;;;;8.86;93.21;98823.47;4873945;29;9715;-70
2021/12/01 08:24:06;;;;;;;;;1.00;1.00;;;;;8.80;93.96;98827.09;4872165;29;9673;-71
2021/12/01 08:26:36;;;;;;;;;0.00;0.00;;;;;8.80;94.17;98812.78;4872186;29;9663;-69
2021/12/01 08:29:02;;;;;;;;;1.00;0.00;;;;;8.77;94.23;98826.72;4871533;29;9493;-70
2021/12/01 08:31:29;;;;;;;;;0.00;0.00;;;;;8.73;94.69;98826.34;4872553;29;10379;-68
2021/12/01 08:33:55;;;;;;;;;0.50;0.00;;;;;8.72;95.07;98826.56;4873583;29;10413;-69
2021/12/01 08:36:22;;;;;;;;;0.00;0.00;;;;;8.73;96.16;98837.13;4874072;29;9667;-68
2021/12/01 08:38:48;;;;;;;;;2.00;1.00;;;;;8.73;96.24;98823.66;4872290;29;9710;-69
2021/12/01 08:41:15;;;;;;;;;1.00;1.00;;;;;8.75;96.47;98823.44;4869987;29;9670;-69
2021/12/01 08:43:42;;;;;;;;;1.00;1.00;;;;;8.78;95.86;98825.66;4872943;29;9792;-68
2021/12/01 08:46:09;;;;;;;;;1.25;0.00;;;;;8.76;95.83;98831.28;4887298;29;9732;-70
2021/12/01 08:48:36;;;;;;;;;1.00;0.00;;;;;8.78;96.02;98831.06;4873257;29;9722;-69
2021/12/01 08:51:04;;;;;;;;;0.00;0.00;;;;;8.79;95.75;98819.22;4868859;29;9663;-69
2021/12/01 08:53:33;;;;;;;;;1.00;0.00;;;;;8.78;95.75;98831.88;4872368;29;9741;-68
2021/12/01 08:56:01;;;;;;;;;1.00;1.00;;;;;8.93;95.41;98848.50;4871733;29;10297;-68
2021/12/01 08:58:28;;;;;;;;;0.00;0.00;;;;;8.84;95.82;98857.94;4872918;29;9557;-68
2021/12/01 09:00:56;;;;;;;;;0.75;0.00;;;;;8.72;96.08;98851.69;4873273;29;9624;-69
2021/12/01 09:03:24;;;;;;;;;0.00;0.00;;;;;8.70;96.36;98856.47;4881313;29;9833;-69
2021/12/01 09:05:52;;;;;;;;;0.50;0.50;;;;;8.69;96.33;98860.22;4873372;29;9725;-68
2021/12/01 09:08:22;;;;;;;;;0.00;0.00;;;;;8.61;97.17;98877.50;4869890;29;9813;-69
2021/12/01 09:10:52;;;;;;;;;1.00;1.00;;;;;8.60;98.40;98877.75;4872950;29;9580;-68
2021/12/01 09:13:21;;;;;;;;;0.00;0.00;;;;;8.47;97.59;98878.72;4872051;29;10647;-72
2021/12/01 09:15:49;;;;;;;;;0.00;0.00;;;;;8.44;98.06;98887.28;4876672;29;9621;-70
2021/12/01 09:18:16;;;;;;;;;0.00;0.00;;;;;8.38;98.76;98888.13;4877091;29;9639;-69
2021/12/01 09:20:43;;;;;;;;;1.00;1.00;;;;;8.37;99.33;98888.34;4876115;29;9714;-69
2021/12/01 09:23:09;;;;;;;;;0.00;0.00;;;;;8.74;100.00;98897.31;4890905;29;9882;-72
2021/12/01 09:25:36;;;;;;;;;0.00;0.00;;;;;8.44;99.52;98891.84;4875692;29;9885;-69
2021/12/01 09:28:13;;;;;;;;;0.00;0.00;;;;;8.38;99.35;98896.22;4874318;29;9626;-72
2021/12/01 09:30:40;;;;;;;;;0.00;0.00;;;;;8.89;100.00;98892.34;4876387;29;10541;-69
2021/12/01 09:33:06;;;;;;;;;1.00;0.00;;;;;8.53;97.20;98888.63;4872848;29;10533;-69
2021/12/01 09:35:33;;;;;;;;;1.25;0.50;;;;;8.50;97.02;98885.53;4876533;29;9651;-70
2021/12/01 09:37:59;;;;;;;;;1.00;0.00;;;;;8.51;97.13;98896.09;4876254;29;9564;-70
2021/12/01 09:40:26;;;;;;;;;1.50;0.75;;;;;8.45;96.97;98896.19;4876167;29;9592;-69
2021/12/01 09:42:55;;;;;;;;;0.00;0.00;;;;;8.43;96.73;98896.41;4876206;29;9966;-68
2021/12/01 09:45:26;;;;;;;;;0.00;0.00;;;;;8.44;96.79;98902.63;4890623;29;9828;-70
2021/12/01 09:47:53;;;;;;;;;0.00;0.00;;;;;8.47;96.56;98886.00;4872716;29;9858;-69
2021/12/01 09:50:20;;;;;;;;;0.00;0.00;;;;;8.50;95.66;98891.75;4876097;29;9809;-70
2021/12/01 09:52:47;;;;;;;;;1.50;0.00;;;;;8.52;95.71;98896.94;4876480;29;9730;-70
2021/12/01 09:55:15;;;;;;;;;1.00;1.00;;;;;8.53;94.79;98875.13;4890380;29;9972;-69
2021/12/01 09:58:05;;;;;;;;;0.75;0.75;;;;;8.62;94.32;98879.16;4875842;29;9711;-69
2021/12/01 10:00:33;;;;;;;;;0.25;0.00;;;;;8.72;94.00;98883.22;4890620;29;10546;-68
2021/12/01 10:03:00;;;;;;;;;1.75;1.00;;;;;8.71;93.42;98886.97;4876884;29;9906;-70
2021/12/01 10:05:51;;;;;;;;;1.50;1.00;;;;;8.73;93.96;98891.09;4877154;29;9742;-70
2021/12/01 10:08:21;;;;;;;;;1.75;1.75;;;;;8.74;93.97;98889.22;4875963;29;9713;-70
2021/12/01 10:10:49;;;;;;;;;0.00;0.00;;;;;8.67;93.92;98893.84;4877435;29;9836;-70
2021/12/01 10:13:44;;;;;;;;;1.00;0.00;;;;;8.67;95.00;98896.53;4876731;29;9731;-71
2021/12/01 10:16:14;;;;;;;;;0.25;0.00;;;;;8.58;94.82;98893.31;4874753;29;9719;-72
2021/12/01 10:18:43;;;;;;;;;1.25;1.25;;;;;8.53;95.00;98894.00;4876497;29;9904;-71
2021/12/01 10:21:18;;;;;;;;;1.00;1.00;;;;;8.52;95.91;98895.06;4876878;29;9941;-70
2021/12/01 10:23:49;;;;;;;;;0.25;0.25;;;;;8.56;96.33;98881.94;4876003;29;9879;-72
2021/12/01 10:26:25;;;;;;;;;0.00;0.00;;;;;8.57;96.22;98888.97;4876121;29;9816;-70
2021/12/01 10:29:05;;;;;;;;;1.00;1.00;;;;;8.49;95.61;98884.72;4873959;29;9785;-71
2021/12/01 10:31:43;;;;;;;;;2.75;1.00;;;;;8.50;96.19;98891.75;4875201;29;9960;-70
2021/12/01 10:34:16;;;;;;;;;1.00;0.50;;;;;8.49;95.79;98892.81;4876560;29;9890;-70
2021/12/01 10:36:43;;;;;;;;;0.00;0.00;;;;;8.47;95.46;98889.50;4872067;29;9944;-70
2021/12/01 10:39:10;;;;;;;;;0.75;0.75;;;;;8.50;95.41;98875.56;4875571;29;9896;-70
2021/12/01 10:41:41;;;;;;;;;0.75;0.75;;;;;8.50;94.50;98890.94;4873985;29;9770;-69
2021/12/01 10:44:14;;;;;;;;;1.50;0.75;;;;;8.49;94.25;98889.28;4875162;29;9728;-70
2021/12/01 10:46:52;;;;;;;;;1.00;1.00;;;;;8.49;94.75;98894.69;4875533;29;9844;-70
2021/12/01 10:49:34;;;;;;;;;0.75;0.75;;;;;8.47;94.39;98889.50;4873706;29;9807;-70
2021/12/01 10:52:01;;;;;;;;;1.00;1.00;;;;;8.48;94.61;98880.38;4874235;29;9957;-70
2021/12/01 10:54:27;;;;;;;;;1.00;0.50;;;;;8.48;94.99;98898.44;4875571;29;10582;-70
2021/12/01 10:57:17;;;;;;;;;2.75;1.50;;;;;8.42;94.40;98892.03;4873547;29;9778;-70
2021/12/01 10:59:49;;;;;;;;;2.75;0.50;;;;;8.48;94.86;98898.44;4872673;29;9806;-70
2021/12/01 11:02:17;;;;;;;;;0.00;0.00;;;;;8.42;93.62;98888.50;4874105;29;9881;-71
2021/12/01 11:04:52;;;;;;;;;2.00;1.00;;;;;8.45;92.88;98885.41;4870902;29;10838;-70
2021/12/01 11:07:30;;;;;;;;;0.75;0.75;;;;;8.47;92.37;98891.38;4874017;29;10713;-70
2021/12/01 11:10:20;;;;;;;;;1.00;1.00;;;;;8.47;91.28;98889.50;4874313;29;9907;-70
2021/12/01 11:12:58;;;;;;;;;8.25;1.00;;;;;8.50;91.75;98893.63;4872924;29;10527;-71
2021/12/01 11:15:29;;;;;;;;;0.00;0.00;;;;;8.55;91.66;98902.69;4888877;29;9780;-70
2021/12/01 11:17:57;;;;;;;;;1.00;1.00;;;;;8.58;90.23;98887.94;4876989;29;9863;-70
2021/12/01 11:20:42;;;;;;;;;0.00;0.00;;;;;8.59;90.85;98885.00;4874441;29;10156;-70
2021/12/01 11:23:29;;;;;;;;;1.00;1.00;;;;;8.62;90.07;98886.44;4874251;29;9913;-70
2021/12/01 11:26:06;;;;;;;;;0.00;0.00;;;;;8.63;89.34;98888.91;4873681;29;9885;-71
2021/12/01 11:28:38;;;;;;;;;7.00;0.75;;;;;8.61;88.38;98885.59;4872022;29;10622;-70
2021/12/01 11:31:18;;;;;;;;;0.00;0.00;;;;;8.63;88.43;98874.59;4875248;29;9887;-71
2021/12/01 11:33:46;;;;;;;;;3.75;0.00;;;;;8.63;87.85;98867.31;4872564;29;9813;-70
2021/12/01 11:36:17;;;;;;;;;2.75;0.00;;;;;8.65;87.61;98872.50;4873316;29;10588;-69
2021/12/01 11:38:49;;;;;;;;;1.00;1.00;;;;;8.67;87.39;98878.47;4887691;29;9803;-69
2021/12/01 11:41:16;;;;;;;;;1.25;1.00;;;;;8.69;88.17;98883.69;4874261;29;10001;-69
2021/12/01 11:43:43;;;;;;;;;0.75;0.75;;;;;8.70;88.22;98874.53;4889727;29;9805;-69
2021/12/01 11:46:09;;;;;;;;;1.25;0.00;;;;;8.77;88.18;98868.00;4887877;29;10008;-69
2021/12/01 11:48:40;;;;;;;;;1.25;1.25;;;;;8.79;87.52;98862.38;4875948;29;10455;-70
2021/12/01 11:51:15;;;;;;;;;0.25;0.25;;;;;8.79;88.86;98874.00;4887915;29;9886;-70
2021/12/01 11:53:51;;;;;;;;;2.00;0.00;;;;;8.76;88.52;98877.16;4873354;29;9903;-70
2021/12/01 11:56:25;;;;;;;;;0.00;0.00;;;;;8.73;88.80;98869.50;4872735;29;9791;-70